Pinopolis, South Carolina
Current Conditions -  °F | °C
As of 6:55 PM on Tuesday 25 Nov 2014 (Local Time) from KMKS Reporting Station
Light Rain Light Rain  
Wind Chill: 63°   Ceiling: 2900
Heat Index: 63°   Visibility: 7mi
Dew Point: 63°   Wind: 0mph
Humidity: 100%   Direction: NA
Pressure: 30.02"   Gusts: NA
Location:  33.23°N, 80.04°W
Report Text: KMKS 252355Z AUTO 00000KT 7SM -RA SCT023 BKN029 BKN038 17/17 A3002 RMK AO2 P0002
Loading
Personal Weather Stations






























Interactive Weather Map New forecast layout! Learn more

10-Day Weather Forecast

Advertisements
Track Severe Weather on mobile